createdAt,value
2023-04-19T00:00:00.875Z,14.43
2023-04-19T00:02:04.348Z,13.47
2023-04-19T00:04:08.120Z,14.83
2023-04-19T00:06:14.458Z,14.80
2023-04-19T00:08:17.547Z,14.17
2023-04-19T00:10:20.936Z,14.03
2023-04-19T00:12:25.351Z,14.80
2023-04-19T00:14:28.427Z,15.13
2023-04-19T00:16:31.649Z,14.17
2023-04-19T00:18:34.763Z,14.10
2023-04-19T00:20:37.800Z,14.60
2023-04-19T00:22:41.083Z,13.70
2023-04-19T00:24:44.139Z,15.00
2023-04-19T00:26:47.109Z,13.77
2023-04-19T00:28:51.475Z,14.70
2023-04-19T00:30:54.602Z,15.00
2023-04-19T00:32:57.699Z,15.27
2023-04-19T00:35:01.254Z,14.13
2023-04-19T00:37:05.297Z,14.23
2023-04-19T00:39:09.035Z,14.50
2023-04-19T00:41:14.643Z,14.60
2023-04-19T00:43:19.681Z,15.90
2023-04-19T00:45:24.106Z,14.77
2023-04-19T00:47:27.747Z,13.83
2023-04-19T00:49:31.007Z,15.30
2023-04-19T00:51:34.378Z,15.43
2023-04-19T00:53:37.856Z,15.10
2023-04-19T00:55:41.023Z,14.77
2023-04-19T00:57:44.113Z,14.37
2023-04-19T00:59:47.276Z,14.30
2023-04-19T01:01:51.794Z,14.60
2023-04-19T01:03:55.042Z,15.10
2023-04-19T01:05:58.264Z,14.70
2023-04-19T01:08:01.481Z,15.47
2023-04-19T01:10:04.677Z,15.33
2023-04-19T01:12:07.949Z,15.70
2023-04-19T01:14:11.010Z,15.47
2023-04-19T01:16:14.688Z,13.83
2023-04-19T01:18:20.466Z,13.83
2023-04-19T01:20:23.763Z,15.90
2023-04-19T01:22:28.468Z,15.03
2023-04-19T01:24:31.889Z,15.23
2023-04-19T01:26:34.924Z,14.03
2023-04-19T01:28:39.195Z,15.83
2023-04-19T01:30:42.325Z,15.63
2023-04-19T01:32:45.408Z,14.67
2023-04-19T01:34:49.344Z,14.23
2023-04-19T01:36:52.359Z,14.97
2023-04-19T01:38:56.973Z,15.57
2023-04-19T01:41:00.133Z,15.17
2023-04-19T01:43:03.305Z,15.57
2023-04-19T01:45:07.511Z,15.33
2023-04-19T01:47:10.922Z,15.07
2023-04-19T01:49:17.017Z,15.43
2023-04-19T01:51:21.796Z,16.60
2023-04-19T01:53:25.027Z,16.60
2023-04-19T01:55:30.350Z,14.57
2023-04-19T01:57:33.446Z,16.07
2023-04-19T01:59:36.506Z,15.93
2023-04-19T02:01:39.585Z,16.40
2023-04-19T02:03:42.976Z,14.63
2023-04-19T02:05:46.508Z,15.73
2023-04-19T02:07:49.586Z,15.37
2023-04-19T02:09:52.810Z,14.87
2023-04-19T02:11:57.752Z,15.40
2023-04-19T02:14:00.807Z,16.00
2023-04-19T02:16:04.175Z,14.87
2023-04-19T02:18:08.224Z,14.63
2023-04-19T02:20:11.931Z,15.30
2023-04-19T02:22:15.285Z,16.23
2023-04-19T02:24:18.434Z,14.53
2023-04-19T02:26:21.756Z,15.27
2023-04-19T02:28:26.258Z,15.80
2023-04-19T02:30:29.241Z,14.60
2023-04-19T02:32:32.572Z,15.07
2023-04-19T02:34:36.010Z,14.80
2023-04-19T02:36:39.118Z,14.80
2023-04-19T02:38:42.190Z,15.77
2023-04-19T02:40:45.198Z,13.97
2023-04-19T02:42:48.290Z,15.17
2023-04-19T02:44:52.706Z,14.20
2023-04-19T02:46:59.544Z,14.50
2023-04-19T02:49:02.774Z,15.57
2023-04-19T02:51:06.350Z,14.73
2023-04-19T02:53:09.638Z,14.80
2023-04-19T02:55:12.749Z,15.97
2023-04-19T02:57:16.013Z,15.10
2023-04-19T02:59:20.195Z,14.87
2023-04-19T03:01:25.031Z,14.87
2023-04-19T03:03:28.200Z,15.23
2023-04-19T03:05:31.428Z,15.30
2023-04-19T03:07:34.559Z,14.07
2023-04-19T03:09:37.692Z,15.00
2023-04-19T03:11:40.790Z,14.23
2023-04-19T03:13:44.152Z,15.40
2023-04-19T03:15:49.115Z,14.60
2023-04-19T03:17:54.988Z,14.90
2023-04-19T03:19:58.860Z,15.80
2023-04-19T03:22:02.977Z,15.50
2023-04-19T03:24:08.574Z,14.40
2023-04-19T03:26:14.910Z,15.43
2023-04-19T03:28:21.718Z,14.77
2023-04-19T03:30:43.014Z,14.93
2023-04-19T03:32:47.732Z,13.70
2023-04-19T03:34:52.852Z,14.80
2023-04-19T03:36:56.111Z,15.53
2023-04-19T03:38:59.170Z,14.87
2023-04-19T03:41:03.326Z,14.23
2023-04-19T03:43:11.015Z,13.63
2023-04-19T03:45:14.082Z,16.10
2023-04-19T03:47:22.128Z,15.97
2023-04-19T03:49:27.040Z,16.23
2023-04-19T03:51:40.314Z,14.60
2023-04-19T03:53:43.755Z,15.73
2023-04-19T03:55:47.008Z,15.00
2023-04-19T03:57:50.156Z,14.57
2023-04-19T03:59:58.771Z,15.73
2023-04-19T04:02:01.993Z,14.50
2023-04-19T04:04:05.749Z,15.37
2023-04-19T04:06:09.132Z,14.53
2023-04-19T04:08:13.931Z,14.93
2023-04-19T04:10:17.181Z,15.70
2023-04-19T04:12:20.346Z,15.10
2023-04-19T04:14:24.955Z,14.93
2023-04-19T04:16:28.131Z,15.43
2023-04-19T04:18:32.203Z,15.40
2023-04-19T04:20:36.670Z,14.03
2023-04-19T04:22:46.142Z,14.27
2023-04-19T04:24:53.902Z,14.23
2023-04-19T04:27:00.992Z,14.27
2023-04-19T04:29:06.839Z,14.10
2023-04-19T04:31:12.979Z,15.30
2023-04-19T04:33:17.459Z,15.75
2023-04-19T04:35:21.208Z,15.18
2023-04-19T04:37:37.941Z,15.15
2023-04-19T04:39:41.709Z,14.30
2023-04-19T04:41:49.608Z,14.03
2023-04-19T04:44:08.272Z,15.13
2023-04-19T04:46:15.456Z,15.13
2023-04-19T04:48:19.031Z,14.20
2023-04-19T04:50:22.221Z,14.70
2023-04-19T04:52:26.327Z,13.60
2023-04-19T04:54:42.609Z,13.75
2023-04-19T04:56:57.304Z,13.87
2023-04-19T04:59:00.436Z,14.30
2023-04-19T05:01:08.803Z,15.00
2023-04-19T05:03:15.772Z,14.10
2023-04-19T05:05:24.799Z,14.07
2023-04-19T05:07:27.836Z,13.13
2023-04-19T05:09:32.395Z,14.50
2023-04-19T05:11:35.751Z,14.20
2023-04-19T05:13:40.669Z,14.00
2023-04-19T05:15:43.825Z,14.23
2023-04-19T05:17:46.898Z,13.87
2023-04-19T05:19:51.095Z,13.20
2023-04-19T05:21:54.335Z,13.70
2023-04-19T05:23:57.433Z,13.70
2023-04-19T05:26:00.562Z,13.87
2023-04-19T05:28:05.080Z,12.77
2023-04-19T05:30:18.423Z,13.47
2023-04-19T05:32:22.116Z,13.57
2023-04-19T05:34:33.464Z,13.80
2023-04-19T05:36:37.498Z,13.30
2023-04-19T05:38:43.399Z,14.10
2023-04-19T05:40:46.654Z,13.00
2023-04-19T05:42:49.713Z,12.50
2023-04-19T05:44:54.405Z,12.80
2023-04-19T05:46:58.966Z,12.80
2023-04-19T05:49:25.043Z,14.00
2023-04-19T05:51:51.052Z,13.47
2023-04-19T05:54:07.508Z,12.83
2023-04-19T05:56:10.729Z,11.77
2023-04-19T05:58:13.761Z,13.80
2023-04-19T06:00:18.129Z,13.67
2023-04-19T06:02:32.555Z,13.30
2023-04-19T06:04:36.394Z,12.17
2023-04-19T06:06:39.737Z,12.23
2023-04-19T06:08:42.819Z,12.53
2023-04-19T06:10:54.755Z,12.23
2023-04-19T06:13:01.741Z,13.23
2023-04-19T06:15:05.863Z,13.00
2023-04-19T06:17:09.307Z,13.10
2023-04-19T06:19:13.960Z,13.07
2023-04-19T06:21:17.395Z,12.07
2023-04-19T06:23:20.534Z,13.00
2023-04-19T06:25:23.538Z,12.93
2023-04-19T06:27:27.252Z,13.37
2023-04-19T06:29:30.283Z,13.83
2023-04-19T06:31:33.676Z,12.73
2023-04-19T06:33:36.798Z,13.67
2023-04-19T06:35:41.437Z,12.90
2023-04-19T06:37:44.609Z,13.13
2023-04-19T06:39:47.649Z,14.10
2023-04-19T06:41:50.677Z,13.23
2023-04-19T06:43:53.802Z,12.73
2023-04-19T06:46:00.182Z,13.43
2023-04-19T06:48:03.587Z,13.47
2023-04-19T06:50:08.061Z,12.90
2023-04-19T06:52:12.575Z,12.37
2023-04-19T06:54:15.964Z,12.80
2023-04-19T06:56:19.387Z,13.33
2023-04-19T06:58:22.445Z,13.13
2023-04-19T07:00:25.707Z,12.07
2023-04-19T07:02:28.911Z,12.20
2023-04-19T07:04:32.180Z,11.70
2023-04-19T07:06:35.726Z,10.83
2023-04-19T07:08:49.185Z,12.00
2023-04-19T07:10:53.531Z,11.93
2023-04-19T07:12:56.545Z,11.77
2023-04-19T07:14:59.544Z,11.30
2023-04-19T07:17:02.610Z,11.70
2023-04-19T07:19:05.724Z,11.70
2023-04-19T07:21:08.782Z,12.00
2023-04-19T07:23:12.303Z,11.80
2023-04-19T07:25:16.819Z,11.50
2023-04-19T07:27:19.853Z,10.27
2023-04-19T07:29:22.992Z,11.30
2023-04-19T07:31:26.809Z,11.03
2023-04-19T07:33:29.958Z,11.30
2023-04-19T07:35:33.073Z,11.30
2023-04-19T07:37:36.280Z,11.57
2023-04-19T07:39:39.480Z,11.10
2023-04-19T07:41:43.860Z,10.37
2023-04-19T07:43:46.939Z,10.97
2023-04-19T07:45:50.081Z,11.60
2023-04-19T07:47:53.446Z,11.60
2023-04-19T07:49:56.902Z,11.30
2023-04-19T07:52:00.052Z,11.83
2023-04-19T07:54:03.525Z,10.73
2023-04-19T07:56:08.130Z,10.90
2023-04-19T07:58:12.775Z,11.13
2023-04-19T08:00:16.514Z,12.33
2023-04-19T08:02:19.842Z,12.60
2023-04-19T08:04:23.536Z,11.80
2023-04-19T08:06:27.759Z,12.63
2023-04-19T08:08:30.918Z,11.10
2023-04-19T08:10:35.817Z,11.70
2023-04-19T08:12:47.282Z,12.73
2023-04-19T08:15:02.695Z,12.30
2023-04-19T08:17:25.604Z,12.30
2023-04-19T08:19:31.437Z,12.87
2023-04-19T08:21:40.673Z,13.87
2023-04-19T08:23:48.602Z,13.33
2023-04-19T08:25:52.219Z,12.60
2023-04-19T08:27:55.499Z,13.60
2023-04-19T08:29:59.958Z,12.80
2023-04-19T08:32:03.255Z,12.20
2023-04-19T08:34:06.558Z,12.77
2023-04-19T08:36:10.513Z,13.77
2023-04-19T08:38:13.802Z,13.17
2023-04-19T08:40:18.138Z,11.43
2023-04-19T08:42:33.255Z,13.07
2023-04-19T08:44:59.070Z,13.03
2023-04-19T08:47:06.449Z,11.33
2023-04-19T08:49:09.899Z,12.30
2023-04-19T08:51:13.723Z,12.33
2023-04-19T08:53:24.597Z,12.40
2023-04-19T08:55:29.598Z,12.27
2023-04-19T08:57:33.113Z,12.57
2023-04-19T08:59:36.451Z,11.67
2023-04-19T09:01:40.547Z,12.37
2023-04-19T09:04:00.400Z,12.80
2023-04-19T09:06:07.036Z,12.30
2023-04-19T09:08:23.693Z,12.23
2023-04-19T09:10:27.268Z,11.87
2023-04-19T09:12:30.344Z,11.17
2023-04-19T09:14:33.386Z,11.20
2023-04-19T09:16:37.424Z,11.80
2023-04-19T09:19:08.193Z,11.73
2023-04-19T09:21:28.920Z,11.67
2023-04-19T09:23:31.966Z,12.00
2023-04-19T09:25:49.235Z,11.50
2023-04-19T09:28:10.624Z,12.20
2023-04-19T09:30:24.169Z,11.47
2023-04-19T09:32:47.489Z,11.10
2023-04-19T09:34:56.268Z,10.77
2023-04-19T09:37:08.929Z,11.63
2023-04-19T09:39:29.541Z,11.50
2023-04-19T09:41:33.679Z,11.47
2023-04-19T09:44:01.579Z,11.80
2023-04-19T09:46:00.347Z,12.77
2023-04-19T09:48:05.376Z,13.60
2023-04-19T09:50:22.659Z,12.50
2023-04-19T09:52:28.386Z,11.60
2023-04-19T09:54:32.701Z,11.30
2023-04-19T09:56:37.240Z,11.37
2023-04-19T09:58:51.177Z,11.03
2023-04-19T10:01:10.800Z,12.77
2023-04-19T10:03:18.692Z,11.77
2023-04-19T10:05:24.066Z,12.90
2023-04-19T10:07:30.508Z,11.53
2023-04-19T10:09:42.577Z,11.83
2023-04-19T10:11:58.148Z,11.60
2023-04-19T10:14:08.423Z,11.60
2023-04-19T10:16:18.920Z,11.80
2023-04-19T10:18:23.137Z,11.60
2023-04-19T10:20:32.608Z,12.50
2023-04-19T10:22:37.674Z,11.83
2023-04-19T10:24:42.762Z,12.10
2023-04-19T10:27:07.381Z,11.73
2023-04-19T10:29:10.541Z,11.67
2023-04-19T10:31:14.096Z,11.80
2023-04-19T10:33:25.818Z,11.47
2023-04-19T10:35:35.638Z,13.00
2023-04-19T10:37:41.718Z,14.13
2023-04-19T10:39:46.049Z,12.23
2023-04-19T10:41:59.418Z,13.47
2023-04-19T10:44:12.711Z,13.60
2023-04-19T10:46:17.750Z,13.10
2023-04-19T10:48:34.103Z,13.40
2023-04-19T10:51:00.343Z,15.53
2023-04-19T10:53:36.165Z,14.47
2023-04-19T10:55:51.411Z,14.50
2023-04-19T10:58:05.485Z,13.87
2023-04-19T11:00:21.579Z,16.07
2023-04-19T11:02:32.708Z,16.50
2023-04-19T11:05:01.121Z,15.70
2023-04-19T11:07:07.683Z,15.83
2023-04-19T11:09:12.196Z,16.77
2023-04-19T11:11:15.686Z,16.60
2023-04-19T11:13:18.878Z,16.20
2023-04-19T11:15:24.303Z,15.83
2023-04-19T11:17:29.465Z,17.50
2023-04-19T11:19:32.601Z,16.73
2023-04-19T11:21:40.732Z,16.10
2023-04-19T11:23:47.795Z,16.50
2023-04-19T11:25:52.599Z,16.83
2023-04-19T11:27:56.104Z,16.87
2023-04-19T11:30:04.346Z,16.50
2023-04-19T11:32:07.581Z,17.40
2023-04-19T11:34:10.722Z,18.20
2023-04-19T11:36:14.212Z,18.87
2023-04-19T11:38:17.290Z,19.00
2023-04-19T11:40:23.263Z,18.83
2023-04-19T11:42:26.391Z,19.37
2023-04-19T11:44:29.489Z,19.83
2023-04-19T11:46:32.893Z,18.50
2023-04-19T11:48:36.069Z,18.50
2023-04-19T11:50:40.069Z,19.10
2023-04-19T11:52:43.190Z,19.90
2023-04-19T11:54:46.992Z,17.97
2023-04-19T11:57:06.105Z,18.10
2023-04-19T11:59:10.595Z,16.60
2023-04-19T12:01:14.988Z,17.10
2023-04-19T12:03:18.413Z,15.83
2023-04-19T12:05:21.941Z,16.13
2023-04-19T12:07:25.357Z,15.23
2023-04-19T12:09:28.402Z,16.00
2023-04-19T12:11:44.105Z,16.10
2023-04-19T12:13:48.803Z,14.67
2023-04-19T12:15:52.282Z,14.30
2023-04-19T12:17:59.717Z,14.83
2023-04-19T12:20:03.620Z,13.77
2023-04-19T12:22:10.820Z,14.50
2023-04-19T12:24:16.694Z,13.90
2023-04-19T12:26:19.965Z,13.20
2023-04-19T12:28:23.926Z,12.13
2023-04-19T12:30:28.654Z,12.50
2023-04-19T12:32:31.783Z,12.90
2023-04-19T12:34:34.972Z,12.63
2023-04-19T12:36:38.141Z,11.87
2023-04-19T12:38:41.351Z,11.33
2023-04-19T12:40:44.455Z,11.10
2023-04-19T12:42:47.730Z,12.00
2023-04-19T12:44:50.946Z,10.10
2023-04-19T12:46:57.607Z,10.77
2023-04-19T12:49:01.025Z,10.97
2023-04-19T12:51:05.727Z,11.20
2023-04-19T12:53:09.484Z,10.53
2023-04-19T12:55:12.760Z,12.30
2023-04-19T12:57:16.216Z,15.20
2023-04-19T12:59:19.500Z,12.03
2023-04-19T13:01:23.605Z,11.98
2023-04-19T13:03:32.938Z,11.27
2023-04-19T13:05:36.350Z,10.70
2023-04-19T13:07:39.447Z,11.90
2023-04-19T13:09:42.539Z,11.73
2023-04-19T13:11:45.607Z,11.70
2023-04-19T13:13:48.672Z,11.00
2023-04-19T13:15:51.848Z,11.20
2023-04-19T13:17:57.263Z,11.67
2023-04-19T13:20:01.875Z,11.20
2023-04-19T13:22:04.945Z,10.70
2023-04-19T13:24:08.449Z,10.77
2023-04-19T13:26:11.965Z,10.80
2023-04-19T13:28:15.172Z,10.30
2023-04-19T13:30:18.494Z,10.50
2023-04-19T13:32:21.926Z,10.70
2023-04-19T13:34:25.156Z,10.17
2023-04-19T13:36:29.703Z,10.80
2023-04-19T13:38:33.142Z,10.83
2023-04-19T13:40:36.281Z,11.30
2023-04-19T13:42:39.546Z,10.60
2023-04-19T13:44:42.719Z,10.90
2023-04-19T13:46:45.853Z,10.67
2023-04-19T13:48:48.955Z,11.87
2023-04-19T13:50:52.620Z,11.17
2023-04-19T13:52:57.523Z,11.80
2023-04-19T13:55:00.701Z,12.17
2023-04-19T13:57:04.215Z,12.13
2023-04-19T13:59:07.623Z,10.80
2023-04-19T14:01:10.807Z,12.03
2023-04-19T14:03:14.089Z,10.83
2023-04-19T14:05:17.320Z,10.07
2023-04-19T14:07:20.715Z,9.80
2023-04-19T14:09:25.695Z,10.00
2023-04-19T14:11:29.110Z,9.63
2023-04-19T14:13:32.250Z,10.00
2023-04-19T14:15:35.387Z,10.50
2023-04-19T14:17:38.607Z,11.63
2023-04-19T14:19:42.245Z,10.00
2023-04-19T14:21:45.533Z,6.97
2023-04-19T14:23:49.042Z,6.70
2023-04-19T14:25:53.835Z,6.90
2023-04-19T14:27:57.242Z,6.90
2023-04-19T14:30:00.555Z,5.73
2023-04-19T14:32:17.190Z,6.30
2023-04-19T14:34:26.932Z,5.73
2023-04-19T14:36:30.128Z,6.93
2023-04-19T14:38:33.820Z,7.10
2023-04-19T14:40:37.129Z,6.53
2023-04-19T14:42:41.601Z,7.00
2023-04-19T14:44:45.779Z,6.93
2023-04-19T14:46:48.846Z,7.00
2023-04-19T14:48:51.993Z,6.83
2023-04-19T14:50:55.176Z,5.47
2023-04-19T14:52:58.340Z,5.73
2023-04-19T14:55:01.461Z,5.53
2023-04-19T14:57:04.812Z,4.70
2023-04-19T14:59:09.195Z,5.40
2023-04-19T15:01:12.962Z,5.50
2023-04-19T15:03:17.177Z,6.30
2023-04-19T15:05:20.930Z,5.40
2023-04-19T15:07:24.299Z,6.20
2023-04-19T15:09:27.462Z,5.20
2023-04-19T15:11:30.630Z,4.85
2023-04-19T15:13:34.017Z,5.83
2023-04-19T15:15:38.614Z,4.73
2023-04-19T15:17:41.766Z,4.17
2023-04-19T15:19:46.917Z,3.80
2023-04-19T15:21:50.208Z,4.47
2023-04-19T15:23:53.369Z,4.63
2023-04-19T15:25:56.841Z,4.30
2023-04-19T15:28:00.047Z,4.57
2023-04-19T15:30:03.718Z,3.83
2023-04-19T15:32:08.971Z,4.10
2023-04-19T15:34:12.065Z,4.47
2023-04-19T15:36:15.347Z,4.00
2023-04-19T15:38:18.448Z,3.83
2023-04-19T15:40:21.707Z,3.20
2023-04-19T15:42:24.899Z,3.20
2023-04-19T15:44:28.020Z,3.10
2023-04-19T15:46:31.232Z,3.00
2023-04-19T15:48:35.641Z,3.90
2023-04-19T15:50:40.838Z,3.13
2023-04-19T15:52:45.398Z,2.70
2023-04-19T15:54:50.387Z,2.70
2023-04-19T15:56:53.469Z,2.50
2023-04-19T15:58:56.745Z,3.10
2023-04-19T16:00:59.828Z,2.77
2023-04-19T16:03:03.320Z,2.43
2023-04-19T16:05:08.994Z,3.47
2023-04-19T16:07:12.094Z,2.93
2023-04-19T16:09:15.383Z,2.40
2023-04-19T16:11:18.656Z,2.50
2023-04-19T16:13:21.783Z,2.80
2023-04-19T16:15:24.983Z,3.90
2023-04-19T16:17:28.351Z,2.70
2023-04-19T16:19:31.564Z,2.87
2023-04-19T16:21:36.167Z,2.67
2023-04-19T16:23:39.337Z,2.70
2023-04-19T16:25:42.548Z,2.60
2023-04-19T16:27:47.391Z,2.27
2023-04-19T16:29:50.498Z,2.90
2023-04-19T16:31:54.106Z,2.50
2023-04-19T16:33:57.249Z,2.33
2023-04-19T16:36:00.306Z,1.93
2023-04-19T16:38:06.996Z,2.03
2023-04-19T16:40:11.905Z,2.63
2023-04-19T16:42:15.394Z,1.80
2023-04-19T16:44:18.585Z,2.20
2023-04-19T16:46:21.911Z,1.90
2023-04-19T16:48:25.110Z,3.07
2023-04-19T16:50:28.503Z,2.07
2023-04-19T16:52:33.632Z,2.30
2023-04-19T16:54:38.168Z,2.50
2023-04-19T16:56:41.336Z,3.20
2023-04-19T16:58:44.399Z,2.37
2023-04-19T17:00:48.302Z,2.30
2023-04-19T17:02:52.055Z,2.13
2023-04-19T17:04:55.545Z,2.00
2023-04-19T17:06:58.764Z,2.43
2023-04-19T17:09:04.928Z,2.33
2023-04-19T17:11:09.400Z,2.97
2023-04-19T17:13:12.587Z,2.93
2023-04-19T17:15:16.431Z,2.13
2023-04-19T17:17:20.161Z,1.93
2023-04-19T17:19:23.332Z,2.87
2023-04-19T17:21:27.530Z,2.00
2023-04-19T17:23:30.689Z,2.10
2023-04-19T17:25:33.831Z,2.20
2023-04-19T17:27:39.056Z,2.57
2023-04-19T17:29:42.113Z,2.13
2023-04-19T17:31:45.229Z,3.30
2023-04-19T17:33:48.320Z,3.13
2023-04-19T17:35:51.588Z,59.70
2023-04-19T17:37:54.659Z,5.87
2023-04-19T17:39:58.031Z,2.70
2023-04-19T17:42:01.713Z,2.53
2023-04-19T17:44:06.557Z,3.57
2023-04-19T17:46:09.967Z,3.83
2023-04-19T17:48:13.221Z,3.50
2023-04-19T17:50:16.564Z,3.23
2023-04-19T17:52:19.625Z,3.20
2023-04-19T17:54:22.666Z,2.90
2023-04-19T17:56:25.905Z,2.60
2023-04-19T17:58:29.046Z,2.70
2023-04-19T18:00:33.581Z,2.80
2023-04-19T18:02:36.862Z,3.00
2023-04-19T18:04:44.583Z,4.00
2023-04-19T18:06:48.111Z,3.67
2023-04-19T18:08:51.297Z,3.60
2023-04-19T18:10:54.474Z,3.20
2023-04-19T18:12:57.790Z,4.07
2023-04-19T18:15:00.965Z,4.10
2023-04-19T18:17:05.654Z,2.80
2023-04-19T18:19:08.669Z,3.10
2023-04-19T18:21:11.965Z,3.07
2023-04-19T18:23:15.003Z,3.53
2023-04-19T18:25:18.262Z,3.63
2023-04-19T18:27:21.510Z,3.63
2023-04-19T18:29:24.807Z,3.67
2023-04-19T18:31:27.974Z,3.07
2023-04-19T18:33:32.546Z,3.10
2023-04-19T18:35:36.658Z,3.53
2023-04-19T18:37:40.003Z,3.70
2023-04-19T18:39:43.127Z,3.90
2023-04-19T18:41:46.241Z,3.87
2023-04-19T18:44:08.162Z,3.53
2023-04-19T18:46:12.385Z,3.67
2023-04-19T18:48:15.595Z,3.50
2023-04-19T18:50:20.503Z,3.43
2023-04-19T18:52:23.696Z,2.93
2023-04-19T18:54:26.908Z,2.80
2023-04-19T18:57:10.969Z,3.00
2023-04-19T18:58:54.253Z,3.50
2023-04-19T19:00:57.771Z,2.90
2023-04-19T19:03:02.863Z,3.20
2023-04-19T19:05:08.406Z,3.50
2023-04-19T19:07:27.667Z,3.30
2023-04-19T19:09:36.873Z,3.40
2023-04-19T19:11:55.454Z,3.00
2023-04-19T19:13:59.509Z,3.00
2023-04-19T19:16:02.702Z,3.67
2023-04-19T19:18:06.447Z,3.33
2023-04-19T19:20:11.013Z,3.10
2023-04-19T19:22:25.648Z,3.27
2023-04-19T19:24:31.684Z,2.77
2023-04-19T19:26:34.811Z,2.90
2023-04-19T19:28:37.908Z,2.80
2023-04-19T19:30:42.886Z,3.13
2023-04-19T19:32:45.981Z,3.20
2023-04-19T19:36:56.119Z,2.83
2023-04-19T19:39:01.078Z,3.03
2023-04-19T19:43:12.344Z,3.00
2023-04-19T19:45:17.509Z,2.87
2023-04-19T19:47:22.136Z,2.70
2023-04-19T19:49:25.409Z,3.13
2023-04-19T19:51:53.220Z,3.37
2023-04-19T19:53:51.793Z,3.50
2023-04-19T19:55:56.893Z,3.70
2023-04-19T19:58:35.002Z,3.50
2023-04-19T20:00:44.021Z,3.20
2023-04-19T20:04:54.290Z,3.30
2023-04-19T20:07:28.834Z,3.10
2023-04-19T20:09:21.347Z,3.40
2023-04-19T20:11:26.049Z,3.10
2023-04-19T20:13:29.066Z,3.10
2023-04-19T20:15:32.201Z,3.23
2023-04-19T20:17:35.554Z,3.40
2023-04-19T20:19:38.724Z,3.17
2023-04-19T20:21:41.917Z,3.60
2023-04-19T20:23:45.086Z,3.47
2023-04-19T20:25:49.422Z,3.53
2023-04-19T20:27:56.498Z,3.40
2023-04-19T20:30:00.697Z,3.33
2023-04-19T20:32:03.955Z,3.33
2023-04-19T20:34:06.990Z,2.90
2023-04-19T20:36:10.536Z,3.90
2023-04-19T20:38:13.679Z,3.43
2023-04-19T20:40:17.752Z,3.63
2023-04-19T20:42:20.974Z,3.50
2023-04-19T20:44:25.399Z,3.23
2023-04-19T20:46:28.860Z,6.83
2023-04-19T20:48:32.012Z,3.60
2023-04-19T20:50:35.211Z,3.80
2023-04-19T20:52:38.306Z,4.07
2023-04-19T20:54:41.610Z,4.05
2023-04-19T20:56:44.699Z,4.20
2023-04-19T20:58:47.735Z,4.03
2023-04-19T21:00:52.255Z,4.53
2023-04-19T21:02:55.422Z,4.80
2023-04-19T21:04:58.611Z,5.30
2023-04-19T21:07:01.868Z,5.83
2023-04-19T21:09:05.105Z,5.00
2023-04-19T21:11:08.214Z,4.88
2023-04-19T21:13:11.358Z,4.20
2023-04-19T21:15:14.437Z,3.90
2023-04-19T21:17:18.889Z,4.47
2023-04-19T21:19:21.950Z,4.70
2023-04-19T21:21:25.183Z,4.80
2023-04-19T21:23:28.307Z,4.57
2023-04-19T21:25:31.431Z,4.70
2023-04-19T21:27:34.753Z,4.50
2023-04-19T21:29:37.769Z,4.68
2023-04-19T21:31:40.904Z,4.87
2023-04-19T21:33:45.289Z,4.55
2023-04-19T21:35:48.376Z,5.05
2023-04-19T21:37:51.538Z,4.72
2023-04-19T21:39:54.658Z,4.68
2023-04-19T21:41:57.777Z,4.63
2023-04-19T21:44:00.892Z,4.30
2023-04-19T21:46:05.127Z,4.38
2023-04-19T21:48:08.656Z,4.47
2023-04-19T21:50:13.237Z,4.53
2023-04-19T21:52:16.327Z,4.72
2023-04-19T21:54:30.697Z,4.47
2023-04-19T21:56:36.275Z,5.07
2023-04-19T21:58:39.477Z,4.80
2023-04-19T22:00:42.574Z,4.35
2023-04-19T22:02:45.850Z,5.07
2023-04-19T22:04:49.965Z,4.97
2023-04-19T22:06:54.291Z,4.80
2023-04-19T22:08:59.275Z,4.10
2023-04-19T22:11:03.588Z,4.50
2023-04-19T22:13:06.680Z,5.00
2023-04-19T22:15:10.659Z,4.50
2023-04-19T22:17:13.668Z,4.40
2023-04-19T22:19:16.989Z,4.40
2023-04-19T22:21:20.194Z,4.47
2023-04-19T22:23:24.633Z,4.55
2023-04-19T22:25:27.724Z,4.03
2023-04-19T22:27:30.786Z,4.70
2023-04-19T22:29:34.361Z,4.70
2023-04-19T22:31:37.425Z,4.63
2023-04-19T22:33:40.628Z,4.63
2023-04-19T22:35:43.615Z,4.75
2023-04-19T22:37:46.584Z,4.78
2023-04-19T22:39:50.975Z,4.50
2023-04-19T22:41:54.060Z,4.95
2023-04-19T22:43:57.055Z,4.75
2023-04-19T22:46:01.053Z,4.80
2023-04-19T22:48:04.419Z,4.63
2023-04-19T22:50:08.917Z,4.63
2023-04-19T22:52:12.798Z,4.93
2023-04-19T22:54:15.951Z,5.22
2023-04-19T22:56:20.365Z,4.30
2023-04-19T22:58:23.383Z,4.57
2023-04-19T23:00:26.724Z,4.90
2023-04-19T23:02:29.849Z,4.47
2023-04-19T23:04:35.033Z,4.70
2023-04-19T23:06:38.217Z,5.30
2023-04-19T23:08:41.383Z,4.80
2023-04-19T23:10:45.299Z,5.85
2023-04-19T23:12:49.733Z,5.75
2023-04-19T23:14:52.708Z,5.00
2023-04-19T23:16:55.798Z,5.05
2023-04-19T23:18:58.784Z,5.35
2023-04-19T23:21:01.830Z,5.20
2023-04-19T23:23:05.187Z,5.13
2023-04-19T23:25:09.429Z,4.75
2023-04-19T23:27:12.729Z,4.85
2023-04-19T23:29:17.301Z,6.20
2023-04-19T23:31:20.450Z,5.13
2023-04-19T23:33:23.679Z,5.13
2023-04-19T23:35:26.838Z,5.15
2023-04-19T23:37:29.899Z,4.85
2023-04-19T23:39:32.895Z,5.25
2023-04-19T23:41:35.951Z,5.03
2023-04-19T23:43:39.134Z,4.57
2023-04-19T23:45:43.567Z,5.43
2023-04-19T23:47:46.662Z,6.20
2023-04-19T23:49:49.807Z,5.20
2023-04-19T23:51:52.834Z,5.63
2023-04-19T23:53:55.974Z,5.18
2023-04-19T23:55:59.070Z,5.32
2023-04-19T23:58:02.102Z,5.70
